Odate Noshiro Airport
RJSR : now visible

Airfield :











YOU CAN JOIN US ON...

 
LOGIN :

Register | Disclaimer

   EN    FR    IT 

 









Legend :    VFR   Marginal VFR   IFR   Intensive IFR   Very Intensive IFR
Visi :
Ceiling :
>= 8 km
>= 3000ft
5 to 8 km
1000 to 3000 ft
1500m to 5 km
500 to 1000 ft
800 to 1500m
200 to 500 ft
< 800m
< 200 ft
Symbols :   Thunderstorms  Fog  Heavy snow  Heavy precipitations  Wind > 20 kt






- Airport Elevation : 292 ft
- IATA code : ONJ


RJSR - Odate Noshiro

CURRENT METAR :
  • 201000Z 19004KT 6000 -SHSN FEW002 SCT010 BKN020 00/00 Q1024

EXPIRED METARs :
  • 200909Z 19007KT 6000 -SHSN FEW002 SCT015 BKN020 M00/M00 Q1024 RMK 1ST002 3CU015 5CU020 A3024
  • 200900Z 21006KT 3500 R11/2000N -SHSN FEW002 SCT010 BKN015 00/00 Q1024
  • 200839Z 20006KT 6000 -SHSN FEW002 SCT015 BKN030 M00/M00 Q1024 RMK 1ST002 3CU015 7CU030 A3024

TAF N/A



MET'MAP, your aeronautical weather chart ! - Copyright ORBIFLY December 2007 - Disclaimer

ORBIFLY MET'MAP TEAM :

Programming & Development : Alexandra Zaïnal
Concept & Development : Baudouin d'Aumeries
Co-Development & Prog : Marc-Olivier Méhu
Technical & hardware support : Manuel Goepfert

Contact : metmap@orbifly.com




SOURCES & CREDITS :

   NOAA       Earth
Advisory